createdAt,value
2022-08-22T00:01:33.620Z,98281.53
2022-08-22T00:02:48.496Z,98366.03
2022-08-22T00:02:49.791Z,98337.06
2022-08-22T00:04:06.747Z,98282.72
2022-08-22T00:06:53.312Z,98280.69
2022-08-22T00:09:42.162Z,98277.63
2022-08-22T00:12:31.550Z,98279.72
2022-08-22T00:14:59.955Z,98272.38
2022-08-22T00:17:30.160Z,98279.34
2022-08-22T00:20:13.299Z,98284.16
2022-08-22T00:22:43.181Z,98278.22
2022-08-22T00:25:24.602Z,98281.78
2022-08-22T00:27:59.662Z,98279.53
2022-08-22T00:33:02.656Z,98289.47
2022-08-22T00:35:53.770Z,98287.59
2022-08-22T00:41:07.074Z,98282.13
2022-08-22T00:43:48.669Z,98286.94
2022-08-22T00:46:37.617Z,98287.13
2022-08-22T00:49:22.503Z,98287.13
2022-08-22T00:52:31.638Z,98292.41
2022-08-22T00:55:21.408Z,98291.56
2022-08-22T00:58:15.436Z,98291.38
2022-08-22T01:00:45.310Z,98278.75
2022-08-22T01:03:24.569Z,98287.94
2022-08-22T01:06:00.545Z,98283.91
2022-08-22T01:09:01.688Z,98284.56
2022-08-22T01:12:07.204Z,98281.19
2022-08-22T01:14:43.363Z,98286.44
2022-08-22T01:17:16.224Z,98281.34
2022-08-22T01:20:07.911Z,98284.09
2022-08-22T01:23:00.390Z,98292.09
2022-08-22T01:25:55.019Z,98293.78
2022-08-22T01:28:49.942Z,98291.03
2022-08-22T01:31:55.126Z,98295.47
2022-08-22T01:34:43.214Z,98303.19
2022-08-22T01:37:31.670Z,98294.63
2022-08-22T01:40:26.231Z,98300.47
2022-08-22T01:43:10.727Z,98302.16
2022-08-22T01:46:02.187Z,98290.75
2022-08-22T01:49:00.459Z,98301.66
2022-08-22T01:51:33.143Z,98299.97
2022-08-22T01:54:10.049Z,98294.50
2022-08-22T01:56:44.510Z,98297.41
2022-08-22T01:59:45.192Z,98301.47
2022-08-22T02:02:20.993Z,98295.19
2022-08-22T02:04:52.221Z,98309.19
2022-08-22T02:07:31.591Z,98303.53
2022-08-22T02:10:11.767Z,98301.66
2022-08-22T02:12:41.955Z,98305.59
2022-08-22T02:15:14.829Z,98303.06
2022-08-22T02:17:53.906Z,98302.22
2022-08-22T02:20:25.705Z,98301.34
2022-08-22T02:23:26.598Z,98294.22
2022-08-22T02:26:16.900Z,98297.13
2022-08-22T02:28:56.601Z,98294.38
2022-08-22T02:31:41.150Z,98301.75
2022-08-22T02:34:26.720Z,98300.88
2022-08-22T02:37:06.921Z,98299.66
2022-08-22T02:39:35.069Z,98294.25
2022-08-22T02:42:12.413Z,98295.75
2022-08-22T02:44:48.504Z,98297.47
2022-08-22T02:47:33.036Z,98297.00
2022-08-22T02:50:12.689Z,98295.09
2022-08-22T02:53:01.376Z,98292.00
2022-08-22T02:55:48.595Z,98298.66
2022-08-22T02:58:24.608Z,98300.19
2022-08-22T03:01:23.745Z,98301.91
2022-08-22T03:03:51.202Z,98302.28
2022-08-22T03:06:38.606Z,98300.03
2022-08-22T03:09:15.118Z,98296.28
2022-08-22T03:11:52.209Z,98288.28
2022-08-22T03:14:21.472Z,98296.47
2022-08-22T03:16:55.476Z,98291.00
2022-08-22T03:19:31.876Z,98285.72
2022-08-22T03:22:01.304Z,98290.47
2022-08-22T03:24:43.123Z,98283.69
2022-08-22T03:27:27.753Z,98277.94
2022-08-22T03:30:22.785Z,98285.59
2022-08-22T03:32:59.551Z,98285.94
2022-08-22T03:35:32.419Z,98291.03
2022-08-22T03:38:14.676Z,98283.22
2022-08-22T03:41:06.481Z,98283.41
2022-08-22T03:44:12.272Z,98298.91
2022-08-22T03:47:03.470Z,98297.22
2022-08-22T03:49:59.373Z,98293.09
2022-08-22T03:52:33.006Z,98287.84
2022-08-22T03:55:10.052Z,98293.28
2022-08-22T03:57:59.158Z,98294.13
2022-08-22T04:00:35.952Z,98297.22
2022-08-22T04:03:06.190Z,98292.25
2022-08-22T04:05:35.833Z,98291.41
2022-08-22T04:08:25.952Z,98292.59
2022-08-22T04:11:18.060Z,98295.31
2022-08-22T04:14:08.559Z,98305.41
2022-08-22T04:17:09.879Z,98306.22
2022-08-22T04:20:01.439Z,98305.75
2022-08-22T04:22:47.244Z,98306.41
2022-08-22T04:25:20.007Z,98307.28
2022-08-22T04:27:56.001Z,98302.19
2022-08-22T04:30:31.550Z,98297.56
2022-08-22T04:33:14.443Z,98297.38
2022-08-22T04:35:59.482Z,98302.84
2022-08-22T04:38:31.746Z,98311.19
2022-08-22T04:41:04.756Z,98312.03
2022-08-22T04:43:47.242Z,98318.38
2022-08-22T04:46:22.433Z,98322.78
2022-08-22T04:49:14.831Z,98322.59
2022-08-22T04:52:01.130Z,98334.56
2022-08-22T04:54:40.540Z,98328.63
2022-08-22T04:57:16.363Z,98328.78
2022-08-22T04:59:43.729Z,98335.09
2022-08-22T05:02:11.845Z,98336.59
2022-08-22T05:04:47.079Z,98337.81
2022-08-22T05:07:22.254Z,98347.72
2022-08-22T05:09:56.468Z,98347.72
2022-08-22T05:12:29.198Z,98347.72
2022-08-22T05:15:01.638Z,98348.56
2022-08-22T05:17:29.526Z,98355.91
2022-08-22T05:19:58.296Z,98359.63
2022-08-22T05:22:29.750Z,98354.19
2022-08-22T05:24:59.815Z,98355.38
2022-08-22T05:27:34.195Z,98358.28
2022-08-22T05:30:11.820Z,98360.16
2022-08-22T05:32:59.711Z,98364.78
2022-08-22T05:35:35.574Z,98361.88
2022-08-22T05:38:02.620Z,98360.16
2022-08-22T05:40:30.446Z,98371.06
2022-08-22T05:42:57.691Z,98373.13
2022-08-22T05:45:25.334Z,98373.97
2022-08-22T05:48:05.261Z,98378.41
2022-08-22T05:50:38.369Z,98377.56
2022-08-22T05:53:26.773Z,98380.47
2022-08-22T05:56:03.028Z,98383.38
2022-08-22T05:58:39.378Z,98389.69
2022-08-22T06:01:14.285Z,98391.72
2022-08-22T06:03:48.421Z,98396.16
2022-08-22T06:06:16.938Z,98397.84
2022-08-22T06:08:48.710Z,98398.69
2022-08-22T06:11:20.485Z,98413.56
2022-08-22T06:14:17.599Z,98402.66
2022-08-22T06:16:48.896Z,98401.59
2022-08-22T06:19:19.420Z,98399.75
2022-08-22T06:21:48.974Z,98404.31
2022-08-22T06:24:21.182Z,98390.03
2022-08-22T06:26:51.233Z,98396.53
2022-08-22T06:29:29.387Z,98394.81
2022-08-22T06:31:56.514Z,98392.75
2022-08-22T06:34:27.011Z,98399.06
2022-08-22T06:36:54.395Z,98398.56
2022-08-22T06:39:26.691Z,98395.66
2022-08-22T06:42:01.583Z,98394.97
2022-08-22T06:44:36.591Z,98407.59
2022-08-22T06:47:06.416Z,98400.44
2022-08-22T06:49:34.846Z,98398.38
2022-08-22T06:52:23.451Z,98403.16
2022-08-22T06:55:12.724Z,98410.16
2022-08-22T06:57:44.071Z,98420.19
2022-08-22T07:00:13.627Z,98421.91
2022-08-22T07:02:46.118Z,98419.84
2022-08-22T07:05:21.454Z,98426.34
2022-08-22T07:07:49.179Z,98424.63
2022-08-22T07:10:16.621Z,98426.34
2022-08-22T07:12:45.418Z,98412.19
2022-08-22T07:15:36.735Z,98417.47
2022-08-22T07:18:09.113Z,98421.91
2022-08-22T07:20:38.682Z,98413.56
2022-08-22T07:23:11.097Z,98415.63
2022-08-22T07:26:04.654Z,98423.63
2022-08-22T07:28:51.433Z,98418.16
2022-08-22T07:31:42.027Z,98420.19
2022-08-22T07:34:38.126Z,98417.97
2022-08-22T07:37:09.795Z,98419.00
2022-08-22T07:39:51.665Z,98418.84
2022-08-22T07:42:30.304Z,98422.25
2022-08-22T07:45:13.609Z,98419.00
2022-08-22T07:48:02.903Z,98416.28
2022-08-22T07:50:32.058Z,98416.59
2022-08-22T07:53:05.246Z,98421.56
2022-08-22T07:55:32.458Z,98427.69
2022-08-22T07:58:02.118Z,98427.88
2022-08-22T08:00:31.558Z,98429.75
2022-08-22T08:03:01.701Z,98436.03
2022-08-22T08:05:30.737Z,98432.66
2022-08-22T08:07:57.769Z,98429.91
2022-08-22T08:10:33.229Z,98422.75
2022-08-22T08:13:03.459Z,98425.47
2022-08-22T08:15:32.308Z,98426.34
2022-08-22T08:18:01.984Z,98424.13
2022-08-22T08:20:29.558Z,98422.91
2022-08-22T08:22:56.882Z,98425.63
2022-08-22T08:25:28.869Z,98428.34
2022-08-22T08:28:14.421Z,98425.31
2022-08-22T08:30:53.296Z,98423.25
2022-08-22T08:33:25.105Z,98428.53
2022-08-22T08:36:03.281Z,98426.28
2022-08-22T08:38:55.741Z,98423.75
2022-08-22T08:41:32.140Z,98417.44
2022-08-22T08:44:20.169Z,98417.44
2022-08-22T08:46:55.641Z,98416.09
2022-08-22T08:49:33.578Z,98412.13
2022-08-22T08:52:19.499Z,98405.84
2022-08-22T08:54:56.127Z,98410.06
2022-08-22T08:57:51.322Z,98417.75
2022-08-22T09:00:21.594Z,98415.69
2022-08-22T09:03:09.554Z,98411.28
2022-08-22T09:05:39.622Z,98403.59
2022-08-22T09:08:44.052Z,98399.34
2022-08-22T09:11:16.937Z,98395.78
2022-08-22T09:14:22.980Z,98403.47
2022-08-22T09:16:53.585Z,98400.38
2022-08-22T09:19:27.641Z,98398.66
2022-08-22T09:22:14.668Z,98401.22
2022-08-22T09:24:57.479Z,98393.88
2022-08-22T09:27:38.116Z,98397.66
2022-08-22T09:30:12.431Z,98401.22
2022-08-22T09:32:48.795Z,98408.41
2022-08-22T09:35:18.774Z,98404.78
2022-08-22T09:38:15.874Z,98407.34
2022-08-22T09:40:55.495Z,98414.69
2022-08-22T09:43:38.929Z,98419.78
2022-08-22T09:46:32.264Z,98431.19
2022-08-22T09:49:14.290Z,98430.00
2022-08-22T09:52:34.328Z,98426.41
2022-08-22T09:55:08.161Z,98423.34
2022-08-22T09:57:51.315Z,98430.19
2022-08-22T10:00:47.422Z,98428.13
2022-08-22T10:03:46.741Z,98426.59
2022-08-22T10:06:18.710Z,98433.59
2022-08-22T10:09:03.937Z,98424.56
2022-08-22T10:11:45.469Z,98425.06
2022-08-22T10:14:22.768Z,98424.00
2022-08-22T10:16:58.851Z,98424.53
2022-08-22T10:20:03.145Z,98430.66
2022-08-22T10:22:48.846Z,98432.34
2022-08-22T10:25:25.542Z,98434.88
2022-08-22T10:28:28.499Z,98435.06
2022-08-22T10:31:08.074Z,98431.50
2022-08-22T10:33:44.391Z,98434.03
2022-08-22T10:36:17.780Z,98441.75
2022-08-22T10:38:53.379Z,98445.47
2022-08-22T10:41:30.135Z,98445.31
2022-08-22T10:44:19.096Z,98445.31
2022-08-22T10:47:01.107Z,98447.03
2022-08-22T10:49:29.440Z,98443.25
2022-08-22T10:52:17.513Z,98445.31
2022-08-22T10:54:52.763Z,98442.75
2022-08-22T10:57:42.528Z,98445.97
2022-08-22T11:00:15.676Z,98448.69
2022-08-22T11:02:49.144Z,98444.13
2022-08-22T11:05:42.748Z,98432.34
2022-08-22T11:08:28.769Z,98445.13
2022-08-22T11:11:11.572Z,98435.22
2022-08-22T11:13:46.077Z,98430.81
2022-08-22T11:16:16.617Z,98424.31
2022-08-22T11:19:02.782Z,98432.50
2022-08-22T11:21:41.069Z,98439.50
2022-08-22T11:24:34.630Z,98437.78
2022-08-22T11:27:40.894Z,98438.66
2022-08-22T11:30:19.167Z,98432.50
2022-08-22T11:32:59.591Z,98432.34
2022-08-22T11:35:57.848Z,98441.22
2022-08-22T11:38:39.572Z,98438.81
2022-08-22T11:41:19.954Z,98435.38
2022-08-22T11:44:09.032Z,98440.66
2022-08-22T11:46:38.660Z,98440.00
2022-08-22T11:49:09.375Z,98441.03
2022-08-22T11:51:53.685Z,98445.78
2022-08-22T11:54:31.518Z,98440.84
2022-08-22T11:57:17.646Z,98447.66
2022-08-22T12:00:15.132Z,98446.59
2022-08-22T12:03:00.601Z,98449.00
2022-08-22T12:05:33.967Z,98447.78
2022-08-22T12:08:09.711Z,98449.44
2022-08-22T12:10:47.618Z,98445.66
2022-08-22T12:13:21.509Z,98439.19
2022-08-22T12:16:16.829Z,98443.94
2022-08-22T12:19:08.542Z,98438.84
2022-08-22T12:21:54.364Z,98447.59
2022-08-22T12:24:24.800Z,98441.63
2022-08-22T12:27:28.482Z,98447.09
2022-08-22T12:29:55.950Z,98439.09
2022-08-22T12:32:45.836Z,98434.28
2022-08-22T12:35:46.173Z,98431.91
2022-08-22T12:38:30.687Z,98430.03
2022-08-22T12:43:53.388Z,98431.25
2022-08-22T12:46:32.085Z,98425.25
2022-08-22T12:49:18.143Z,98425.56
2022-08-22T12:51:47.947Z,98424.88
2022-08-22T12:54:30.505Z,98425.75
2022-08-22T12:57:23.937Z,98427.78
2022-08-22T12:59:58.188Z,98426.75
2022-08-22T13:02:27.972Z,98429.31
2022-08-22T13:05:20.221Z,98421.31
2022-08-22T13:08:12.688Z,98425.38
2022-08-22T13:10:48.261Z,98425.38
2022-08-22T13:13:38.657Z,98429.97
2022-08-22T13:16:09.080Z,98431.69
2022-08-22T13:18:47.472Z,98434.25
2022-08-22T13:21:34.690Z,98433.38
2022-08-22T13:24:17.026Z,98428.28
2022-08-22T13:26:58.313Z,98426.59
2022-08-22T13:29:42.903Z,98432.72
2022-08-22T13:32:16.856Z,98430.47
2022-08-22T13:34:46.216Z,98435.94
2022-08-22T13:37:16.344Z,98435.75
2022-08-22T13:39:45.650Z,98432.53
2022-08-22T13:42:20.208Z,98433.03
2022-08-22T13:44:57.072Z,98440.19
2022-08-22T13:47:25.796Z,98433.72
2022-08-22T13:50:14.013Z,98436.97
2022-08-22T13:52:52.214Z,98433.03
2022-08-22T13:55:32.697Z,98437.28
2022-08-22T13:58:07.725Z,98438.13
2022-08-22T14:01:03.486Z,98425.16
2022-08-22T14:03:37.793Z,98428.50
2022-08-22T14:06:36.994Z,98426.84
2022-08-22T14:09:09.551Z,98425.69
2022-08-22T14:11:46.189Z,98418.84
2022-08-22T14:14:13.383Z,98421.41
2022-08-22T14:16:52.199Z,98418.69
2022-08-22T14:19:52.657Z,98423.47
2022-08-22T14:22:22.090Z,98418.34
2022-08-22T14:25:01.557Z,98421.91
2022-08-22T14:27:39.698Z,98425.16
2022-08-22T14:30:15.774Z,98424.28
2022-08-22T14:32:47.268Z,98427.03
2022-08-22T14:35:35.071Z,98427.03
2022-08-22T14:38:32.552Z,98425.13
2022-08-22T14:41:20.726Z,98427.69
2022-08-22T14:44:20.389Z,98420.88
2022-08-22T14:46:53.743Z,98418.69
2022-08-22T14:49:33.755Z,98415.78
2022-08-22T14:52:07.640Z,98423.63
2022-08-22T14:54:39.059Z,98423.63
2022-08-22T14:57:12.542Z,98423.44
2022-08-22T14:59:50.026Z,98427.84
2022-08-22T15:02:29.474Z,98440.50
2022-08-22T15:04:56.961Z,98433.75
2022-08-22T15:07:34.456Z,98432.00
2022-08-22T15:10:07.939Z,98427.69
2022-08-22T15:12:41.116Z,98435.88
2022-08-22T15:15:27.426Z,98427.03
2022-08-22T15:17:54.981Z,98436.97
2022-08-22T15:20:35.648Z,98438.19
2022-08-22T15:23:09.911Z,98432.06
2022-08-22T15:25:41.512Z,98428.47
2022-08-22T15:28:20.307Z,98429.50
2022-08-22T15:30:56.754Z,98430.34
2022-08-22T15:33:26.957Z,98424.72
2022-08-22T15:36:27.257Z,98428.66
2022-08-22T15:38:56.810Z,98430.53
2022-08-22T15:41:36.491Z,98420.66
2022-08-22T15:44:32.348Z,98414.03
2022-08-22T15:47:10.873Z,98403.09
2022-08-22T15:49:55.207Z,98412.13
2022-08-22T15:52:30.922Z,98419.66
2022-08-22T15:55:19.111Z,98413.00
2022-08-22T15:58:00.196Z,98416.09
2022-08-22T16:00:43.338Z,98421.91
2022-08-22T16:03:23.962Z,98418.34
2022-08-22T16:06:10.336Z,98419.19
2022-08-22T16:08:37.094Z,98416.63
2022-08-22T16:11:04.166Z,98420.91
2022-08-22T16:13:31.120Z,98416.47
2022-08-22T16:16:13.162Z,98422.59
2022-08-22T16:18:40.372Z,98425.31
2022-08-22T16:21:08.230Z,98422.59
2022-08-22T16:23:53.954Z,98427.03
2022-08-22T16:26:30.204Z,98422.25
2022-08-22T16:29:17.880Z,98424.47
2022-08-22T16:31:48.580Z,98427.38
2022-08-22T16:34:18.379Z,98427.03
2022-08-22T16:37:03.611Z,98441.03
2022-08-22T16:40:01.758Z,98435.41
2022-08-22T16:42:38.616Z,98433.91
2022-08-22T16:45:08.720Z,98436.81
2022-08-22T16:47:41.817Z,98438.66
2022-08-22T16:50:27.121Z,98436.09
2022-08-22T16:53:03.070Z,98429.81
2022-08-22T16:55:30.217Z,98427.06
2022-08-22T16:58:35.697Z,98418.88
2022-08-22T17:01:50.574Z,98412.09
2022-08-22T17:04:35.261Z,98409.91
2022-08-22T17:07:17.129Z,98413.13
2022-08-22T17:09:51.472Z,98413.78
2022-08-22T17:12:30.889Z,98408.66
2022-08-22T17:15:25.978Z,98414.13
2022-08-22T17:18:15.063Z,98405.28
2022-08-22T17:21:03.793Z,98416.19
2022-08-22T17:24:07.531Z,98408.88
2022-08-22T17:26:37.471Z,98411.78
2022-08-22T17:29:10.296Z,98409.59
2022-08-22T17:31:47.482Z,98409.22
2022-08-22T17:34:29.302Z,98407.16
2022-08-22T17:37:01.334Z,98409.06
2022-08-22T17:42:26.036Z,98417.59
2022-08-22T17:45:04.708Z,98419.09
2022-08-22T17:47:44.322Z,98422.19
2022-08-22T17:50:18.604Z,98423.06
2022-08-22T17:52:55.173Z,98413.16
2022-08-22T17:55:26.685Z,98416.38
2022-08-22T17:57:56.115Z,98406.84
2022-08-22T18:00:30.933Z,98414.88
2022-08-22T18:03:26.335Z,98407.69
2022-08-22T18:05:59.613Z,98408.53
2022-08-22T18:09:13.269Z,98412.31
2022-08-22T18:11:24.461Z,98425.28
2022-08-22T18:14:05.594Z,98426.09
2022-08-22T18:16:52.395Z,98428.44
2022-08-22T18:19:54.102Z,98432.81
2022-08-22T18:22:33.154Z,98438.97
2022-08-22T18:25:20.598Z,98443.44
2022-08-22T18:27:47.707Z,98440.41
2022-08-22T18:30:16.909Z,98442.16
2022-08-22T18:32:55.318Z,98438.94
2022-08-22T18:35:31.210Z,98436.56
2022-08-22T18:38:04.066Z,98437.41
2022-08-22T18:40:51.909Z,98444.09
2022-08-22T18:43:38.161Z,98449.16
2022-08-22T18:46:25.957Z,98450.03
2022-08-22T18:49:14.046Z,98446.59
2022-08-22T18:51:41.628Z,98448.66
2022-08-22T18:54:08.481Z,98447.84
2022-08-22T18:56:58.458Z,98453.28
2022-08-22T18:59:40.905Z,98453.13
2022-08-22T19:02:33.789Z,98448.19
2022-08-22T19:05:25.857Z,98454.69
2022-08-22T19:08:23.309Z,98457.91
2022-08-22T19:10:54.738Z,98457.22
2022-08-22T19:13:28.361Z,98453.13
2022-08-22T19:16:04.591Z,98451.75
2022-08-22T19:18:37.971Z,98456.19
2022-08-22T19:21:49.351Z,98448.00
2022-08-22T19:24:25.438Z,98454.47
2022-08-22T19:27:07.613Z,98443.56
2022-08-22T19:29:34.478Z,98438.09
2022-08-22T19:32:06.602Z,98441.22
2022-08-22T19:34:41.643Z,98440.34
2022-08-22T19:37:30.719Z,98440.34
2022-08-22T19:40:08.924Z,98434.41
2022-08-22T19:42:38.160Z,98426.69
2022-08-22T19:45:29.335Z,98424.16
2022-08-22T19:48:07.752Z,98424.84
2022-08-22T19:50:37.681Z,98433.19
2022-08-22T19:53:24.528Z,98418.34
2022-08-22T19:56:13.694Z,98427.06
2022-08-22T19:59:14.405Z,98422.28
2022-08-22T20:01:44.062Z,98421.41
2022-08-22T20:04:30.068Z,98421.25
2022-08-22T20:07:21.071Z,98418.50
2022-08-22T20:10:09.437Z,98431.31
2022-08-22T20:13:01.286Z,98424.84
2022-08-22T20:15:29.939Z,98412.22
2022-08-22T20:18:46.489Z,98417.66
2022-08-22T20:20:59.612Z,98411.19
2022-08-22T20:23:30.761Z,98411.03
2022-08-22T20:25:58.042Z,98408.47
2022-08-22T20:28:58.259Z,98403.69
2022-08-22T20:31:27.043Z,98401.13
2022-08-22T20:33:58.878Z,98398.22
2022-08-22T20:36:27.938Z,98394.44
2022-08-22T20:39:00.399Z,98389.19
2022-08-22T20:41:35.796Z,98387.97
2022-08-22T20:44:21.784Z,98386.25
2022-08-22T20:46:53.371Z,98388.31
2022-08-22T20:49:26.669Z,98394.25
2022-08-22T20:52:01.970Z,98385.59
2022-08-22T20:54:34.569Z,98383.34
2022-08-22T20:57:10.263Z,98370.94
2022-08-22T20:59:39.401Z,98381.00
2022-08-22T21:02:18.422Z,98373.00
2022-08-22T21:05:03.771Z,98375.53
2022-08-22T21:07:30.622Z,98378.94
2022-08-22T21:10:23.155Z,98370.09
2022-08-22T21:13:06.237Z,98379.28
2022-08-22T21:15:39.414Z,98371.09
2022-08-22T21:18:08.137Z,98358.97
2022-08-22T21:20:36.989Z,98351.81
2022-08-22T21:23:06.225Z,98337.13
2022-08-22T21:25:33.164Z,98415.09
2022-08-22T21:28:00.911Z,98402.44
2022-08-22T21:30:28.379Z,98432.28
2022-08-22T21:32:56.390Z,98434.53
2022-08-22T21:35:30.266Z,98415.59
2022-08-22T21:37:57.249Z,98430.97
2022-08-22T21:40:35.554Z,98412.88
2022-08-22T21:43:05.765Z,98419.00
2022-08-22T21:45:37.324Z,98415.25
2022-08-22T21:48:30.295Z,98410.63
2022-08-22T21:50:57.531Z,98393.41
2022-08-22T21:53:27.888Z,98392.75
2022-08-22T21:56:17.037Z,98390.03
2022-08-22T21:58:46.330Z,98383.53
2022-08-22T22:01:30.327Z,98388.97
2022-08-22T22:03:59.026Z,98397.38
2022-08-22T22:06:26.213Z,98396.34
2022-08-22T22:08:53.091Z,98383.53
2022-08-22T22:11:20.261Z,98385.59
2022-08-22T22:13:47.139Z,98380.13
2022-08-22T22:16:14.155Z,98378.28
2022-08-22T22:18:41.317Z,98395.66
2022-08-22T22:21:08.524Z,98399.22
2022-08-22T22:23:35.415Z,98395.66
2022-08-22T22:26:03.800Z,98393.94
2022-08-22T22:28:32.655Z,98388.50
2022-08-22T22:30:59.612Z,98385.75
2022-08-22T22:33:29.505Z,98376.06
2022-08-22T22:35:58.039Z,98368.56
2022-08-22T22:38:24.922Z,98366.84
2022-08-22T22:40:52.475Z,98356.97
2022-08-22T22:43:19.363Z,98363.44
2022-08-22T22:45:46.252Z,98362.44
2022-08-22T22:48:13.498Z,98355.94
2022-08-22T22:50:50.877Z,98349.63
2022-08-22T22:53:21.253Z,98344.34
2022-08-22T22:55:59.836Z,98339.06
2022-08-22T22:58:28.425Z,98334.09
2022-08-22T23:00:56.105Z,98326.78
2022-08-22T23:03:23.086Z,98337.69
2022-08-22T23:05:50.180Z,98339.56
2022-08-22T23:08:17.060Z,98327.63
2022-08-22T23:10:43.945Z,98320.44
2022-08-22T23:13:11.079Z,98317.53
2022-08-22T23:15:37.948Z,98319.91
2022-08-22T23:18:04.832Z,98329.16
2022-08-22T23:20:31.971Z,98324.88
2022-08-22T23:22:59.677Z,98312.44
2022-08-22T23:25:26.694Z,98312.44
2022-08-22T23:27:54.085Z,98311.78
2022-08-22T23:30:21.557Z,98316.03
2022-08-22T23:32:48.448Z,98317.91
2022-08-22T23:35:15.596Z,98312.44
2022-08-22T23:37:42.454Z,98315.16
2022-08-22T23:40:10.548Z,98317.38
2022-08-22T23:42:37.713Z,98317.72
2022-08-22T23:45:05.005Z,98323.88
2022-08-22T23:47:31.888Z,98321.16
2022-08-22T23:49:59.011Z,98324.88
2022-08-22T23:52:33.109Z,98325.72
2022-08-22T23:55:00.217Z,98332.41
2022-08-22T23:57:27.459Z,98332.78
2022-08-22T23:59:57.984Z,98329.38
